Time;durP1;ratioP1;P1;durP2;ratioP2;P2;SDS_P1;SDS_P2;PMS_P1;PMS_P2;Temp;Humidity;BMP_temperature;BMP_pressure;BME280_temperature;BME280_humidity;BME280_pressure;Samples;Min_cycle;Max_cycle;Signal;HPM_P1;HPM_P2
2023/08/02 00:01:26;;;;;;;;;;;;;;;20.09;62.32;99923.03;4147167;28;19929;-57
2023/08/02 00:03:28;;;;;;;;;;;;;;;20.09;62.64;99923.03;4148089;28;20020;-58
2023/08/02 00:05:30;;;;;;;;;;;;;;;20.08;63.74;99921.34;4148065;28;19925;-58
2023/08/02 00:07:31;;;;;;;;;;;;;;;20.08;62.73;99909.81;4148294;28;20422;-57
2023/08/02 00:09:33;;;;;;;;;;;;;;;20.08;63.50;99913.31;4147934;28;19983;-57
2023/08/02 00:11:35;;;;;;;;;;;;;;;20.06;64.18;99899.28;4147583;28;19932;-57
2023/08/02 00:13:36;;;;;;;;;;;;;;;20.05;64.22;99899.41;4148197;28;19933;-57
2023/08/02 00:15:38;;;;;;;;;;;;;;;20.04;64.53;99893.25;4147711;28;20021;-58
2023/08/02 00:17:40;;;;;;;;;;;;;;;20.06;64.66;99895.75;4148155;28;19925;-58
2023/08/02 00:19:41;;;;;;;;;;;;;;;20.03;64.54;99886.22;4148186;28;20302;-58
2023/08/02 00:21:43;;;;;;;;;;;;;;;20.06;64.19;99875.28;4147471;28;19972;-57
2023/08/02 00:23:44;;;;;;;;;;;;;;;20.05;64.14;99883.41;4148193;28;19968;-58
2023/08/02 00:25:46;;;;;;;;;;;;;;;20.05;63.10;99881.59;4146916;28;19949;-58
2023/08/02 00:27:48;;;;;;;;;;;;;;;20.04;63.95;99871.88;4147972;28;19937;-58
2023/08/02 00:29:49;;;;;;;;;;;;;;;20.01;65.20;99866.81;4147984;28;19969;-58
2023/08/02 00:31:51;;;;;;;;;;;;;;;20.01;64.56;99850.78;4145935;28;20468;-57
2023/08/02 00:33:53;;;;;;;;;;;;;;;20.02;64.78;99852.50;4146698;28;20382;-58
2023/08/02 00:35:54;;;;;;;;;;;;;;;20.03;64.65;99842.66;4148281;28;19964;-58
2023/08/02 00:37:56;;;;;;;;;;;;;;;20.03;64.66;99840.00;4147794;28;19925;-58
2023/08/02 00:39:57;;;;;;;;;;;;;;;20.03;64.48;99829.31;4148025;28;19929;-58
2023/08/02 00:41:59;;;;;;;;;;;;;;;20.02;64.69;99824.97;4147242;28;19932;-58
2023/08/02 00:44:05;;;;;;;;;;;;;;;20.02;64.35;99815.13;4147734;28;20287;-58
2023/08/02 00:46:13;;;;;;;;;;;;;;;20.04;62.93;99812.34;4147626;28;20012;-56
2023/08/02 00:48:15;;;;;;;;;;;;;;;20.05;63.16;99801.50;4147961;28;19925;-58
2023/08/02 00:50:16;;;;;;;;;;;;;;;20.04;64.37;99785.66;4147706;28;19949;-58
2023/08/02 00:52:18;;;;;;;;;;;;;;;20.05;64.72;99779.31;4147171;28;19936;-58
2023/08/02 00:54:20;;;;;;;;;;;;;;;20.02;63.72;99769.75;4147889;28;20371;-58
2023/08/02 00:56:21;;;;;;;;;;;;;;;20.02;64.17;99750.25;4147694;28;19932;-58
2023/08/02 00:58:23;;;;;;;;;;;;;;;20.03;63.97;99749.25;4147630;28;20024;-58
2023/08/02 01:00:24;;;;;;;;;;;;;;;20.00;64.63;99753.06;4147472;28;19952;-58
2023/08/02 01:02:26;;;;;;;;;;;;;;;20.00;64.67;99747.72;4147205;28;19958;-58
2023/08/02 01:04:27;;;;;;;;;;;;;;;19.99;64.74;99745.16;4147792;28;19971;-58
2023/08/02 01:06:32;;;;;;;;;;;;;;;19.95;64.18;99737.44;4147709;28;19929;-58
2023/08/02 01:08:36;;;;;;;;;;;;;;;19.91;63.32;99724.53;4147802;28;19932;-58
2023/08/02 01:10:42;;;;;;;;;;;;;;;20.01;64.54;99721.84;4146995;28;19932;-58
2023/08/02 01:12:45;;;;;;;;;;;;;;;19.99;63.59;99713.13;4147600;28;19925;-58
2023/08/02 01:14:49;;;;;;;;;;;;;;;19.99;64.57;99708.66;4147065;28;20292;-58
2023/08/02 01:16:57;;;;;;;;;;;;;;;19.99;63.59;99699.78;4147822;28;19926;-57
2023/08/02 01:19:01;;;;;;;;;;;;;;;20.00;63.84;99693.47;4147565;28;19933;-58
2023/08/02 01:21:03;;;;;;;;;;;;;;;19.99;63.84;99692.66;4147183;28;19952;-58
2023/08/02 01:23:04;;;;;;;;;;;;;;;19.97;63.46;99683.09;4150400;28;19933;-58
2023/08/02 01:25:06;;;;;;;;;;;;;;;19.98;63.88;99688.28;4150442;28;19937;-57
2023/08/02 01:27:11;;;;;;;;;;;;;;;19.98;65.29;99684.75;4150416;28;19980;-58
2023/08/02 01:29:14;;;;;;;;;;;;;;;19.95;65.21;99662.72;4150212;28;19956;-57
2023/08/02 01:31:16;;;;;;;;;;;;;;;19.76;64.58;99641.38;4150054;28;20024;-58
2023/08/02 01:33:17;;;;;;;;;;;;;;;19.94;65.37;99663.72;4150466;28;19925;-57
2023/08/02 01:35:19;;;;;;;;;;;;;;;19.94;64.64;99650.38;4150404;28;19925;-57
2023/08/02 01:37:21;;;;;;;;;;;;;;;19.94;63.89;99644.19;4150385;28;19926;-58
2023/08/02 01:39:22;;;;;;;;;;;;;;;19.95;63.62;99636.03;4150149;28;19979;-59
2023/08/02 01:41:24;;;;;;;;;;;;;;;19.96;63.90;99636.88;4149625;28;20374;-58
2023/08/02 01:43:25;;;;;;;;;;;;;;;19.94;63.95;99631.69;4149842;28;19972;-58
2023/08/02 01:45:27;;;;;;;;;;;;;;;19.95;64.18;99630.69;4148973;28;19925;-58
2023/08/02 01:47:29;;;;;;;;;;;;;;;19.96;64.30;99620.84;4150133;28;19984;-58
2023/08/02 01:49:30;;;;;;;;;;;;;;;19.95;63.77;99621.84;4150194;28;19925;-58
2023/08/02 01:51:31;;;;;;;;;;;;;;;19.94;64.38;99613.00;4149599;28;19925;-58
2023/08/02 01:53:33;;;;;;;;;;;;;;;19.94;65.32;99621.00;4149827;28;19925;-58
2023/08/02 01:55:35;;;;;;;;;;;;;;;19.91;65.66;99615.94;4150060;28;19933;-57
2023/08/02 01:57:36;;;;;;;;;;;;;;;19.89;65.85;99623.28;4149713;28;19926;-58
2023/08/02 01:59:38;;;;;;;;;;;;;;;19.90;65.88;99618.75;4150091;28;19925;-57
2023/08/02 02:01:39;;;;;;;;;;;;;;;19.89;65.33;99614.41;4149463;28;19928;-58
2023/08/02 02:03:41;;;;;;;;;;;;;;;19.92;65.18;99608.81;4149937;28;19925;-58
2023/08/02 02:05:50;;;;;;;;;;;;;;;19.88;65.78;99608.25;4149974;28;20285;-58
2023/08/02 02:07:52;;;;;;;;;;;;;;;19.91;64.72;99607.94;4148622;28;20020;-57
2023/08/02 02:09:53;;;;;;;;;;;;;;;19.90;64.65;99592.06;4148516;28;19932;-58
2023/08/02 02:11:55;;;;;;;;;;;;;;;19.90;64.75;99592.06;4148944;28;20020;-58
2023/08/02 02:13:56;;;;;;;;;;;;;;;19.90;64.65;99586.75;4149842;28;19925;-58
2023/08/02 02:15:58;;;;;;;;;;;;;;;19.90;64.29;99587.59;4148438;28;20397;-57
2023/08/02 02:17:59;;;;;;;;;;;;;;;19.90;66.11;99581.41;4149729;28;19926;-58
2023/08/02 02:20:01;;;;;;;;;;;;;;;19.87;64.88;99581.72;4149629;28;19925;-57
2023/08/02 02:22:03;;;;;;;;;;;;;;;19.90;65.36;99571.59;4148891;28;19926;-58
2023/08/02 02:24:04;;;;;;;;;;;;;;;19.89;66.11;99556.56;4149644;28;20315;-58
2023/08/02 02:26:06;;;;;;;;;;;;;;;19.85;65.25;99557.00;4149267;28;19933;-58
2023/08/02 02:28:07;;;;;;;;;;;;;;;19.87;64.69;99558.53;4149445;28;19973;-58
2023/08/02 02:30:09;;;;;;;;;;;;;;;19.88;65.68;99554.00;4149350;28;19935;-58
2023/08/02 02:32:10;;;;;;;;;;;;;;;19.86;65.73;99546.16;4148927;28;20390;-58
2023/08/02 02:34:12;;;;;;;;;;;;;;;19.86;65.64;99532.81;4149415;28;20378;-57
2023/08/02 02:36:14;;;;;;;;;;;;;;;19.85;64.86;99539.13;4149390;28;19926;-57
2023/08/02 02:38:15;;;;;;;;;;;;;;;19.87;65.30;99531.84;4149222;28;19975;-56
2023/08/02 02:40:17;;;;;;;;;;;;;;;19.84;66.32;99509.94;4149338;28;19932;-56
2023/08/02 02:42:19;;;;;;;;;;;;;;;19.85;65.35;99508.97;4148359;28;19951;-58
2023/08/02 02:44:21;;;;;;;;;;;;;;;19.86;65.96;99498.13;4149222;28;19926;-58
2023/08/02 02:46:22;;;;;;;;;;;;;;;19.84;66.93;99501.94;4149269;28;20330;-58
2023/08/02 02:48:24;;;;;;;;;;;;;;;19.82;67.22;99495.88;4149352;28;19959;-58
2023/08/02 02:50:25;;;;;;;;;;;;;;;19.83;65.58;99490.41;4149034;28;19936;-58
2023/08/02 02:52:27;;;;;;;;;;;;;;;19.85;66.66;99484.94;4148352;28;19988;-58
2023/08/02 02:54:29;;;;;;;;;;;;;;;19.85;66.58;99476.94;4149156;28;20309;-58
2023/08/02 02:56:30;;;;;;;;;;;;;;;19.83;66.90;99471.72;4148903;28;19968;-57
2023/08/02 02:58:32;;;;;;;;;;;;;;;19.80;66.23;99459.50;4148740;28;20012;-58
2023/08/02 03:00:33;;;;;;;;;;;;;;;19.82;65.45;99456.72;4148209;28;20398;-58
2023/08/02 03:02:35;;;;;;;;;;;;;;;19.86;65.89;99455.44;4148459;28;19972;-58
2023/08/02 03:04:37;;;;;;;;;;;;;;;19.86;65.54;99433.28;4148975;28;19969;-58
2023/08/02 03:06:39;;;;;;;;;;;;;;;19.86;65.13;99443.94;4149177;28;20426;-58
2023/08/02 03:08:41;;;;;;;;;;;;;;;19.87;65.68;99440.28;4148925;28;19932;-58
2023/08/02 03:10:42;;;;;;;;;;;;;;;19.85;66.21;99423.59;4148354;28;19925;-58
2023/08/02 03:12:44;;;;;;;;;;;;;;;19.84;65.77;99420.06;4148199;28;19926;-58
2023/08/02 03:14:47;;;;;;;;;;;;;;;19.85;65.41;99415.59;4148802;28;19925;-57
2023/08/02 03:16:48;;;;;;;;;;;;;;;19.86;65.29;99419.94;4149233;28;19926;-58
2023/08/02 03:18:50;;;;;;;;;;;;;;;19.86;66.90;99418.09;4148875;28;20310;-58
2023/08/02 03:20:51;;;;;;;;;;;;;;;19.76;66.62;99404.75;4149051;28;20019;-58
2023/08/02 03:22:53;;;;;;;;;;;;;;;19.84;66.00;99408.56;4148188;28;19933;-58
2023/08/02 03:24:54;;;;;;;;;;;;;;;19.84;65.50;99404.06;4148476;28;20016;-57
2023/08/02 03:26:57;;;;;;;;;;;;;;;19.85;65.82;99407.56;4148615;28;19925;-57
2023/08/02 03:28:58;;;;;;;;;;;;;;;19.85;65.93;99396.91;4148953;28;19936;-58
2023/08/02 03:31:00;;;;;;;;;;;;;;;19.85;66.26;99403.06;4148411;28;20298;-58
2023/08/02 03:33:02;;;;;;;;;;;;;;;19.77;66.48;99386.94;4148244;28;19932;-58
2023/08/02 03:35:03;;;;;;;;;;;;;;;19.84;66.12;99393.38;4148746;28;19933;-56
2023/08/02 03:37:05;;;;;;;;;;;;;;;19.85;65.72;99384.38;4148586;28;20012;-58
2023/08/02 03:39:07;;;;;;;;;;;;;;;19.86;66.16;99385.25;4148066;28;19932;-58
2023/08/02 03:41:08;;;;;;;;;;;;;;;19.86;65.56;99385.25;4148303;28;20068;-58
2023/08/02 03:43:10;;;;;;;;;;;;;;;19.86;65.89;99372.75;4147987;28;19926;-58
2023/08/02 03:45:12;;;;;;;;;;;;;;;19.87;66.47;99381.59;4147912;28;19940;-58
2023/08/02 03:47:13;;;;;;;;;;;;;;;19.85;66.59;99378.22;4148353;28;19972;-57
2023/08/02 03:49:15;;;;;;;;;;;;;;;19.86;66.18;99372.75;4148272;28;20016;-58
2023/08/02 03:51:16;;;;;;;;;;;;;;;19.86;66.04;99372.75;4147741;28;20454;-58
2023/08/02 03:53:18;;;;;;;;;;;;;;;19.87;66.32;99369.09;4147791;28;19926;-58
2023/08/02 03:55:19;;;;;;;;;;;;;;;19.86;67.29;99370.06;4148323;28;19952;-58
2023/08/02 03:57:21;;;;;;;;;;;;;;;19.84;68.44;99366.69;4148144;28;20023;-58
2023/08/02 03:59:22;;;;;;;;;;;;;;;19.85;68.24;99375.56;4148235;28;19969;-58
2023/08/02 04:01:24;;;;;;;;;;;;;;;19.78;67.38;99356.59;4147700;28;19979;-58
2023/08/02 04:03:26;;;;;;;;;;;;;;;19.85;67.22;99359.56;4148141;28;19995;-58
2023/08/02 04:05:27;;;;;;;;;;;;;;;19.85;68.03;99352.38;4148293;28;20048;-58
2023/08/02 04:07:29;;;;;;;;;;;;;;;19.85;66.79;99349.72;4147986;28;19956;-59
2023/08/02 04:09:31;;;;;;;;;;;;;;;19.87;67.39;99349.59;4148077;28;19976;-57
2023/08/02 04:11:33;;;;;;;;;;;;;;;19.83;68.22;99349.00;4147590;28;19926;-58
2023/08/02 04:13:34;;;;;;;;;;;;;;;19.85;66.82;99346.22;4148164;28;19965;-58
2023/08/02 04:15:36;;;;;;;;;;;;;;;19.88;68.01;99345.91;4148007;28;19965;-58
2023/08/02 04:17:38;;;;;;;;;;;;;;;19.86;68.68;99337.22;4148243;28;20020;-58
2023/08/02 04:19:39;;;;;;;;;;;;;;;19.83;68.78;99341.00;4147837;28;20032;-58
2023/08/02 04:21:41;;;;;;;;;;;;;;;19.86;67.81;99334.56;4147455;28;19926;-57
2023/08/02 04:23:42;;;;;;;;;;;;;;;19.86;67.37;99337.22;4147572;28;19972;-57
2023/08/02 04:25:44;;;;;;;;;;;;;;;19.85;67.68;99341.69;4148120;28;19932;-57
2023/08/02 04:27:45;;;;;;;;;;;;;;;19.85;68.59;99338.22;4147966;28;19957;-57
2023/08/02 04:29:52;;;;;;;;;;;;;;;19.86;67.71;99338.06;4147700;28;19973;-58
2023/08/02 04:31:53;;;;;;;;;;;;;;;19.87;67.79;99328.22;4147541;28;19926;-58
2023/08/02 04:33:56;;;;;;;;;;;;;;;19.86;68.05;99323.88;4147943;28;19925;-57
2023/08/02 04:35:58;;;;;;;;;;;;;;;19.87;68.05;99321.06;4147957;28;20008;-58
2023/08/02 04:38:00;;;;;;;;;;;;;;;19.87;68.15;99323.72;4147758;28;19926;-57
2023/08/02 04:40:02;;;;;;;;;;;;;;;19.87;67.73;99322.91;4146344;28;20012;-58
2023/08/02 04:42:08;;;;;;;;;;;;;;;19.87;68.25;99318.38;4147313;28;20450;-58
2023/08/02 04:44:15;;;;;;;;;;;;;;;19.87;68.61;99315.72;4147981;28;19925;-58
2023/08/02 04:46:21;;;;;;;;;;;;;;;19.87;68.38;99317.56;4147718;28;19932;-58
2023/08/02 04:48:23;;;;;;;;;;;;;;;19.88;68.41;99316.53;4147788;28;20318;-58
2023/08/02 04:50:25;;;;;;;;;;;;;;;19.88;69.61;99322.75;4147776;28;19925;-58
2023/08/02 04:52:26;;;;;;;;;;;;;;;19.88;70.16;99316.53;4146951;28;20401;-58
2023/08/02 04:54:28;;;;;;;;;;;;;;;19.87;68.89;99314.91;4147960;28;20016;-58
2023/08/02 04:56:34;;;;;;;;;;;;;;;19.87;68.29;99302.38;4149160;28;20353;-58
2023/08/02 04:58:41;;;;;;;;;;;;;;;19.88;68.55;99305.88;4150807;28;20020;-59
2023/08/02 05:00:42;;;;;;;;;;;;;;;19.88;70.29;99301.41;4151012;28;20024;-58
2023/08/02 05:02:47;;;;;;;;;;;;;;;19.86;69.41;99300.69;4150423;28;20347;-58
2023/08/02 05:04:52;;;;;;;;;;;;;;;19.88;70.90;99293.41;4150930;28;20461;-58
2023/08/02 05:06:54;;;;;;;;;;;;;;;19.87;71.21;99290.88;4150447;28;19933;-58
2023/08/02 05:08:56;;;;;;;;;;;;;;;19.87;71.10;99296.22;4150802;28;19952;-58
2023/08/02 05:10:57;;;;;;;;;;;;;;;19.87;69.40;99289.03;4150596;28;20381;-58
2023/08/02 05:12:59;;;;;;;;;;;;;;;19.90;71.24;99288.75;4149979;28;20015;-58
2023/08/02 05:15:00;;;;;;;;;;;;;;;19.88;71.02;99296.06;4150557;28;19926;-58
2023/08/02 05:17:07;;;;;;;;;;;;;;;19.89;71.08;99292.41;4150495;28;20013;-58
2023/08/02 05:19:09;;;;;;;;;;;;;;;19.89;71.46;99288.88;4150431;28;20036;-58
2023/08/02 05:21:14;;;;;;;;;;;;;;;19.88;71.12;99280.06;4149230;28;20394;-58
2023/08/02 05:23:16;;;;;;;;;;;;;;;19.91;70.50;99269.06;4150110;28;20004;-58
2023/08/02 05:25:17;;;;;;;;;;;;;;;19.91;70.89;99270.91;4150513;28;19961;-59
2023/08/02 05:27:19;;;;;;;;;;;;;;;19.90;70.16;99269.22;4150427;28;19929;-59
2023/08/02 05:29:20;;;;;;;;;;;;;;;19.92;71.58;99269.91;4150556;28;19972;-58
2023/08/02 05:31:22;;;;;;;;;;;;;;;19.88;71.25;99266.72;4150356;28;19971;-58
2023/08/02 05:33:24;;;;;;;;;;;;;;;19.92;71.34;99269.91;4149889;28;19961;-58
2023/08/02 05:35:25;;;;;;;;;;;;;;;19.90;71.28;99259.41;4150090;28;19956;-58
2023/08/02 05:37:27;;;;;;;;;;;;;;;19.92;70.46;99254.75;4150404;28;19925;-58
2023/08/02 05:39:29;;;;;;;;;;;;;;;19.93;71.34;99255.59;4148924;28;20333;-59
2023/08/02 05:41:30;;;;;;;;;;;;;;;19.92;71.15;99248.56;4150109;28;19976;-58
2023/08/02 05:43:41;;;;;;;;;;;;;;;19.90;71.92;99247.88;4150081;28;19925;-58
2023/08/02 05:45:43;;;;;;;;;;;;;;;19.89;71.71;99243.53;4150186;28;19929;-57
2023/08/02 05:47:44;;;;;;;;;;;;;;;19.92;70.61;99256.56;4150230;28;20378;-58
2023/08/02 05:49:48;;;;;;;;;;;;;;;19.92;70.26;99243.25;4149867;28;19954;-57
2023/08/02 05:51:49;;;;;;;;;;;;;;;19.94;70.77;99241.25;4149704;28;19933;-58
2023/08/02 05:53:51;;;;;;;;;;;;;;;19.94;70.93;99254.59;4149945;28;20412;-58
2023/08/02 05:55:54;;;;;;;;;;;;;;;19.93;70.67;99245.75;4150032;28;19932;-58
2023/08/02 05:57:56;;;;;;;;;;;;;;;19.95;71.36;99248.25;4149855;28;19957;-58
2023/08/02 05:59:57;;;;;;;;;;;;;;;19.94;71.58;99251.94;4149956;28;20318;-58
2023/08/02 06:01:59;;;;;;;;;;;;;;;19.93;71.55;99237.75;4149482;28;19930;-58
2023/08/02 06:04:00;;;;;;;;;;;;;;;19.94;71.19;99236.75;4149709;28;19926;-58
2023/08/02 06:06:02;;;;;;;;;;;;;;;19.94;71.16;99231.41;4150087;28;19979;-58
2023/08/02 06:08:04;;;;;;;;;;;;;;;19.95;71.39;99234.91;4149406;28;19926;-58
2023/08/02 06:10:05;;;;;;;;;;;;;;;19.96;71.94;99228.59;4149650;28;20012;-58
2023/08/02 06:12:07;;;;;;;;;;;;;;;19.97;72.25;99226.78;4149029;28;19932;-58
2023/08/02 06:14:09;;;;;;;;;;;;;;;19.91;72.02;99225.53;4149753;28;19953;-57
2023/08/02 06:16:10;;;;;;;;;;;;;;;19.94;72.62;99220.75;4149633;28;19925;-58
2023/08/02 06:18:12;;;;;;;;;;;;;;;19.92;72.64;99228.06;4149371;28;19929;-58
2023/08/02 06:20:18;;;;;;;;;;;;;;;19.92;74.38;99224.56;4149673;28;19926;-58
2023/08/02 06:22:20;;;;;;;;;;;;;;;19.92;72.23;99214.72;4149074;28;19984;-58
2023/08/02 06:24:22;;;;;;;;;;;;;;;19.93;72.35;99219.06;4149554;28;20469;-58
2023/08/02 06:26:23;;;;;;;;;;;;;;;19.97;72.95;99208.09;4149467;28;19995;-57
2023/08/02 06:28:25;;;;;;;;;;;;;;;19.98;73.13;99196.41;4149529;28;19925;-57
2023/08/02 06:30:26;;;;;;;;;;;;;;;19.97;73.67;99187.56;4149600;28;19948;-58
2023/08/02 06:32:28;;;;;;;;;;;;;;;19.97;72.83;99182.25;4148854;28;20362;-58
2023/08/02 06:34:30;;;;;;;;;;;;;;;19.99;72.88;99200.75;4149187;28;19976;-57
2023/08/02 06:36:31;;;;;;;;;;;;;;;19.99;73.06;99201.63;4149537;28;20358;-58
2023/08/02 06:38:33;;;;;;;;;;;;;;;20.00;73.33;99199.78;4149418;28;20347;-58
2023/08/02 06:40:34;;;;;;;;;;;;;;;20.01;73.37;99214.78;4149198;28;20012;-58
2023/08/02 06:42:40;;;;;;;;;;;;;;;19.92;73.92;99198.69;4148605;28;20013;-58
2023/08/02 06:44:42;;;;;;;;;;;;;;;19.94;73.46;99195.91;4149320;28;19930;-58
2023/08/02 06:46:44;;;;;;;;;;;;;;;19.98;73.24;99191.06;4149351;28;19953;-58
2023/08/02 06:48:45;;;;;;;;;;;;;;;19.98;73.11;99191.94;4148977;28;19933;-58
2023/08/02 06:50:47;;;;;;;;;;;;;;;20.01;73.56;99193.44;4147899;28;19925;-58
2023/08/02 06:52:49;;;;;;;;;;;;;;;19.99;73.67;99188.28;4148779;28;19940;-57
2023/08/02 06:54:55;;;;;;;;;;;;;;;19.99;73.77;99163.41;4149206;28;20008;-58
2023/08/02 06:57:02;;;;;;;;;;;;;;;19.98;73.24;99159.06;4149140;28;20032;-58
2023/08/02 06:59:03;;;;;;;;;;;;;;;19.99;73.84;99174.94;4148985;28;19925;-58
2023/08/02 07:01:12;;;;;;;;;;;;;;;19.99;74.28;99168.72;4149200;28;20020;-58
2023/08/02 07:03:14;;;;;;;;;;;;;;;20.02;74.53;99176.44;4147929;28;20032;-58
2023/08/02 07:05:15;;;;;;;;;;;;;;;19.95;75.19;99170.88;4149365;28;20501;-58
2023/08/02 07:07:17;;;;;;;;;;;;;;;19.98;74.00;99181.25;4149104;28;20064;-58
2023/08/02 07:09:18;;;;;;;;;;;;;;;20.02;74.13;99176.44;4148771;28;20377;-57
2023/08/02 07:11:20;;;;;;;;;;;;;;;20.04;74.27;99177.16;4148984;28;20309;-58
2023/08/02 07:13:36;;;;;;;;;;;;;;;20.04;74.28;99169.97;4148250;28;19957;-58
2023/08/02 07:15:38;;;;;;;;;;;;;;;20.04;74.13;99166.47;4148949;28;19926;-58
2023/08/02 07:17:40;;;;;;;;;;;;;;;20.05;73.64;99160.13;4148626;28;19960;-58
2023/08/02 07:19:41;;;;;;;;;;;;;;;20.07;74.47;99160.81;4147913;28;19925;-58
2023/08/02 07:21:43;;;;;;;;;;;;;;;20.00;73.38;99149.06;4148825;28;20353;-58
2023/08/02 07:23:45;;;;;;;;;;;;;;;20.07;73.96;99160.81;4163295;28;19978;-57
2023/08/02 07:25:46;;;;;;;;;;;;;;;20.05;74.23;99141.44;4148629;28;20012;-58
2023/08/02 07:27:48;;;;;;;;;;;;;;;20.08;74.44;99155.31;4148539;28;19933;-58
2023/08/02 07:29:51;;;;;;;;;;;;;;;20.07;74.14;99156.31;4148504;28;19957;-58
2023/08/02 07:31:53;;;;;;;;;;;;;;;20.11;72.86;99154.19;4148145;28;19975;-57
2023/08/02 07:33:54;;;;;;;;;;;;;;;20.10;73.76;99160.50;4148169;28;19926;-58
2023/08/02 07:35:56;;;;;;;;;;;;;;;20.09;73.07;99166.84;4148664;28;19981;-58
2023/08/02 07:37:57;;;;;;;;;;;;;;;20.13;73.45;99165.53;4148474;28;19956;-58
2023/08/02 07:39:59;;;;;;;;;;;;;;;20.17;72.79;99158.91;4148145;28;20018;-58
2023/08/02 07:42:00;;;;;;;;;;;;;;;20.20;72.30;99166.59;4148017;28;19932;-58
2023/08/02 07:44:02;;;;;;;;;;;;;;;20.19;75.29;99161.41;4148164;28;19925;-58
2023/08/02 07:46:03;;;;;;;;;;;;;;;20.19;75.43;99164.06;4148043;28;19965;-57
2023/08/02 07:48:05;;;;;;;;;;;;;;;20.21;76.02;99164.78;4148519;28;19988;-58
2023/08/02 07:50:07;;;;;;;;;;;;;;;20.20;76.33;99155.06;4148365;28;19926;-57
2023/08/02 07:52:08;;;;;;;;;;;;;;;20.22;75.07;99153.06;4147842;28;19925;-57
2023/08/02 07:54:15;;;;;;;;;;;;;;;20.20;76.04;99158.56;4148354;28;20058;-58
2023/08/02 07:56:21;;;;;;;;;;;;;;;20.18;75.17;99147.19;4148448;28;20040;-58
2023/08/02 07:58:22;;;;;;;;;;;;;;;20.24;75.53;99140.41;4148440;28;19933;-58
2023/08/02 08:00:25;;;;;;;;;;;;;;;20.29;76.62;99143.44;4148057;28;19980;-58
2023/08/02 08:02:27;;;;;;;;;;;;;;;20.29;76.60;99139.94;4147434;28;19925;-58
2023/08/02 08:04:28;;;;;;;;;;;;;;;20.31;76.30;99127.28;4148132;28;20596;-58
2023/08/02 08:06:30;;;;;;;;;;;;;;;20.32;76.16;99145.81;4148241;28;20344;-58
2023/08/02 08:08:31;;;;;;;;;;;;;;;20.38;76.00;99144.38;4148100;28;20008;-58
2023/08/02 08:10:33;;;;;;;;;;;;;;;20.42;75.80;99149.22;4147987;28;19925;-57
2023/08/02 08:12:37;;;;;;;;;;;;;;;20.42;76.42;99135.03;4146344;28;19948;-56
2023/08/02 08:14:41;;;;;;;;;;;;;;;20.43;76.21;99136.72;4140311;28;19926;-57
2023/08/02 08:16:42;;;;;;;;;;;;;;;20.40;75.71;99145.03;4131987;28;20204;-56
2023/08/02 08:18:44;;;;;;;;;;;;;;;20.42;76.30;99146.53;4131738;28;19933;-56
2023/08/02 08:20:45;;;;;;;;;;;;;;;20.50;76.38;99137.75;4139943;28;19932;-55
2023/08/02 08:22:47;;;;;;;;;;;;;;;20.59;76.76;99142.13;4147229;28;20377;-56
2023/08/02 08:24:48;;;;;;;;;;;;;;;20.60;77.21;99140.31;4145623;28;20005;-58
2023/08/02 08:26:50;;;;;;;;;;;;;;;20.63;76.51;99131.16;4146281;28;19980;-57
2023/08/02 08:28:52;;;;;;;;;;;;;;;20.63;76.62;99137.31;4144198;28;19926;-57
2023/08/02 08:30:57;;;;;;;;;;;;;;;20.64;76.50;99140.84;4146559;28;19926;-58
2023/08/02 08:32:59;;;;;;;;;;;;;;;20.64;76.25;99146.19;4150025;28;19979;-58
2023/08/02 08:35:01;;;;;;;;;;;;;;;20.62;76.46;99133.00;4150746;28;19932;-57
2023/08/02 08:37:03;;;;;;;;;;;;;;;20.59;76.76;99144.81;4150803;28;20433;-57
2023/08/02 08:39:05;;;;;;;;;;;;;;;20.59;76.92;99141.31;4149495;28;19947;-58
2023/08/02 08:41:06;;;;;;;;;;;;;;;20.60;76.97;99145.66;4150536;28;19925;-56
2023/08/02 08:43:08;;;;;;;;;;;;;;;20.62;77.07;99134.81;4148007;28;19926;-58
2023/08/02 08:45:10;;;;;;;;;;;;;;;20.65;76.71;99126.50;4150541;28;20346;-57
2023/08/02 08:47:12;;;;;;;;;;;;;;;20.65;76.69;99134.50;4150577;28;19932;-56
2023/08/02 08:49:14;;;;;;;;;;;;;;;20.62;77.09;99130.31;4150357;28;19929;-57
2023/08/02 08:51:18;;;;;;;;;;;;;;;20.67;76.08;99130.69;4150248;28;19972;-57
2023/08/02 08:53:27;;;;;;;;;;;;;;;20.74;75.98;99117.53;4149702;28;20349;-56
2023/08/02 08:55:29;;;;;;;;;;;;;;;20.77;75.49;99116.38;4146434;28;19926;-57
2023/08/02 08:57:31;;;;;;;;;;;;;;;20.80;76.25;99113.41;4134305;28;19925;-57
2023/08/02 08:59:34;;;;;;;;;;;;;;;20.80;76.29;99114.22;4150287;28;19929;-58
2023/08/02 09:01:39;;;;;;;;;;;;;;;20.83;76.31;99103.22;4150862;28;19926;-58
2023/08/02 09:03:43;;;;;;;;;;;;;;;20.86;75.65;99091.38;4150189;28;20298;-57
2023/08/02 09:05:46;;;;;;;;;;;;;;;20.82;75.02;99080.16;4147539;28;19980;-59
2023/08/02 09:07:47;;;;;;;;;;;;;;;20.97;74.40;99096.41;4147160;28;19926;-59
2023/08/02 09:09:49;;;;;;;;;;;;;;;21.03;74.00;99108.31;4149489;28;19930;-63
2023/08/02 09:11:50;;;;;;;;;;;;;;;21.20;74.32;99093.16;4147863;28;20017;-57
2023/08/02 09:14:09;;;;;;;;;;;;;;;21.35;73.01;99101.34;4146635;28;20012;-56
2023/08/02 09:16:17;;;;;;;;;;;;;;;21.51;72.68;99080.00;4149513;28;19960;-56
2023/08/02 09:18:32;;;;;;;;;;;;;;;21.62;72.01;99097.59;4149820;28;19979;-55
2023/08/02 09:20:34;;;;;;;;;;;;;;;21.65;71.37;99096.44;4148228;28;19940;-60
2023/08/02 09:22:35;;;;;;;;;;;;;;;21.64;70.89;99087.56;4149265;28;19929;-62
2023/08/02 09:24:38;;;;;;;;;;;;;;;21.60;70.95;99072.84;4147873;28;20004;-59
2023/08/02 09:26:39;;;;;;;;;;;;;;;21.67;70.47;99091.75;4145334;28;20358;-60
2023/08/02 09:28:56;;;;;;;;;;;;;;;21.71;70.15;99090.41;4148607;28;19965;-60
2023/08/02 09:31:12;;;;;;;;;;;;;;;21.70;69.36;99088.72;4149918;28;19930;-60
2023/08/02 09:33:13;;;;;;;;;;;;;;;21.59;69.17;99099.75;4145328;28;19959;-57
2023/08/02 09:35:15;;;;;;;;;;;;;;;21.74;69.07;99099.94;4149587;28;19926;-59
2023/08/02 09:37:27;;;;;;;;;;;;;;;21.75;68.42;99109.63;4148728;28;19932;-59
2023/08/02 09:39:28;;;;;;;;;;;;;;;21.81;68.03;99092.91;4149780;28;19926;-59
2023/08/02 09:41:31;;;;;;;;;;;;;;;21.75;68.44;99099.78;4144540;28;19925;-59
2023/08/02 09:43:52;;;;;;;;;;;;;;;21.80;68.32;99102.78;4147757;28;19987;-59
2023/08/02 09:45:54;;;;;;;;;;;;;;;21.76;67.05;99103.28;4149429;28;19929;-59
2023/08/02 09:47:56;;;;;;;;;;;;;;;21.76;66.01;99092.59;4149646;28;19972;-60
2023/08/02 09:50:05;;;;;;;;;;;;;;;21.90;65.23;99109.81;4149539;28;19933;-63
2023/08/02 09:52:10;;;;;;;;;;;;;;;21.90;64.03;99105.28;4149193;28;20406;-61
2023/08/02 09:54:12;;;;;;;;;;;;;;;21.90;63.87;99105.28;4148561;28;19956;-62
2023/08/02 09:56:14;;;;;;;;;;;;;;;21.95;61.94;99102.13;4146864;28;19930;-60
2023/08/02 09:58:16;;;;;;;;;;;;;;;21.91;62.36;99106.13;4149282;28;20001;-62
2023/08/02 10:00:17;;;;;;;;;;;;;;;21.96;61.27;99112.66;4149174;28;19925;-59
2023/08/02 10:02:21;;;;;;;;;;;;;;;21.86;61.46;99098.63;4148976;28;19929;-58
2023/08/02 10:04:24;;;;;;;;;;;;;;;21.98;59.99;99101.78;4145236;28;19926;-59
2023/08/02 10:06:32;;;;;;;;;;;;;;;21.90;60.37;99116.00;4145070;28;19926;-60
2023/08/02 10:08:35;;;;;;;;;;;;;;;21.82;60.52;99116.84;4148410;28;20077;-58
2023/08/02 10:10:38;;;;;;;;;;;;;;;21.80;59.96;99131.38;4132764;28;19932;-60
2023/08/02 10:12:40;;;;;;;;;;;;;;;21.86;60.68;99126.22;4137685;28;19961;-57
2023/08/02 10:14:42;;;;;;;;;;;;;;;21.82;58.38;99137.41;4142487;28;19990;-61
2023/08/02 10:16:44;;;;;;;;;;;;;;;21.92;57.09;99131.88;4149178;28;19991;-59
2023/08/02 10:18:52;;;;;;;;;;;;;;;21.86;57.18;99155.66;4148877;28;20561;-62
2023/08/02 10:20:55;;;;;;;;;;;;;;;21.89;56.35;99134.91;4148452;28;20016;-58
2023/08/02 10:22:57;;;;;;;;;;;;;;;21.90;56.37;99149.97;4148187;28;20382;-58
2023/08/02 10:24:59;;;;;;;;;;;;;;;21.92;56.69;99142.59;4146342;28;21468;-60
2023/08/02 10:27:02;;;;;;;;;;;;;;;21.84;56.20;99138.09;4147556;28;19925;-59
2023/08/02 10:29:04;;;;;;;;;;;;;;;21.89;56.11;99135.75;4148281;28;19983;-59
2023/08/02 10:31:08;;;;;;;;;;;;;;;21.98;56.01;99136.56;4148876;28;19925;-57
2023/08/02 10:33:13;;;;;;;;;;;;;;;21.88;55.82;99135.91;4146296;28;19991;-59
2023/08/02 10:35:15;;;;;;;;;;;;;;;21.89;56.32;99117.00;4148616;28;19933;-59
2023/08/02 10:37:18;;;;;;;;;;;;;;;21.92;56.51;99110.47;4148809;28;20395;-63
2023/08/02 10:39:40;;;;;;;;;;;;;;;21.83;57.13;99123.84;4148215;28;20183;-61